sensor_id;sensor_type;location;lat;lon;timestamp;P1;durP1;ratioP1;P2;durP2;ratioP2
32196;SDS011;18697;42.770;23.400;2022-12-15T00:00:39;35.00;;;19.65;;
32196;SDS011;18697;42.770;23.400;2022-12-15T00:03:23;32.65;;;20.70;;
32196;SDS011;18697;42.770;23.400;2022-12-15T00:06:07;32.50;;;19.85;;
32196;SDS011;18697;42.770;23.400;2022-12-15T00:08:51;35.10;;;19.58;;
32196;SDS011;18697;42.770;23.400;2022-12-15T00:11:35;30.52;;;18.42;;
32196;SDS011;18697;42.770;23.400;2022-12-15T00:14:19;34.38;;;21.13;;
32196;SDS011;18697;42.770;23.400;2022-12-15T00:17:03;32.33;;;18.98;;
32196;SDS011;18697;42.770;23.400;2022-12-15T00:19:47;32.40;;;20.45;;
32196;SDS011;18697;42.770;23.400;2022-12-15T00:22:31;29.90;;;19.35;;
32196;SDS011;18697;42.770;23.400;2022-12-15T00:25:15;30.10;;;18.23;;
32196;SDS011;18697;42.770;23.400;2022-12-15T00:27:58;26.67;;;17.80;;
32196;SDS011;18697;42.770;23.400;2022-12-15T00:30:42;27.65;;;18.27;;
32196;SDS011;18697;42.770;23.400;2022-12-15T00:33:26;26.63;;;17.30;;
32196;SDS011;18697;42.770;23.400;2022-12-15T00:36:10;26.25;;;17.33;;
32196;SDS011;18697;42.770;23.400;2022-12-15T00:38:54;28.45;;;18.20;;
32196;SDS011;18697;42.770;23.400;2022-12-15T00:41:20;39.67;;;22.35;;
32196;SDS011;18697;42.770;23.400;2022-12-15T00:43:45;38.67;;;20.88;;
32196;SDS011;18697;42.770;23.400;2022-12-15T00:46:11;31.60;;;19.17;;
32196;SDS011;18697;42.770;23.400;2022-12-15T00:48:55;43.35;;;24.40;;
32196;SDS011;18697;42.770;23.400;2022-12-15T00:51:21;33.90;;;19.95;;
32196;SDS011;18697;42.770;23.400;2022-12-15T00:54:05;45.53;;;23.25;;
32196;SDS011;18697;42.770;23.400;2022-12-15T00:56:49;42.35;;;24.38;;
32196;SDS011;18697;42.770;23.400;2022-12-15T00:59:33;45.13;;;23.10;;
32196;SDS011;18697;42.770;23.400;2022-12-15T01:02:17;33.88;;;21.10;;
32196;SDS011;18697;42.770;23.400;2022-12-15T01:05:01;33.13;;;19.80;;
32196;SDS011;18697;42.770;23.400;2022-12-15T01:07:45;42.88;;;23.35;;
32196;SDS011;18697;42.770;23.400;2022-12-15T01:10:29;36.83;;;20.98;;
32196;SDS011;18697;42.770;23.400;2022-12-15T01:13:13;34.35;;;21.42;;
32196;SDS011;18697;42.770;23.400;2022-12-15T01:15:56;35.97;;;20.95;;
32196;SDS011;18697;42.770;23.400;2022-12-15T01:18:40;35.70;;;20.73;;
32196;SDS011;18697;42.770;23.400;2022-12-15T01:21:24;36.47;;;21.45;;
32196;SDS011;18697;42.770;23.400;2022-12-15T01:23:49;28.92;;;18.10;;
32196;SDS011;18697;42.770;23.400;2022-12-15T01:26:15;32.88;;;18.77;;
32196;SDS011;18697;42.770;23.400;2022-12-15T01:28:40;28.17;;;18.70;;
32196;SDS011;18697;42.770;23.400;2022-12-15T01:31:09;26.52;;;15.85;;
32196;SDS011;18697;42.770;23.400;2022-12-15T01:33:36;29.75;;;18.30;;
32196;SDS011;18697;42.770;23.400;2022-12-15T01:36:02;28.75;;;18.25;;
32196;SDS011;18697;42.770;23.400;2022-12-15T01:38:28;33.67;;;18.08;;
32196;SDS011;18697;42.770;23.400;2022-12-15T01:41:14;29.10;;;16.63;;
32196;SDS011;18697;42.770;23.400;2022-12-15T01:43:39;24.40;;;15.38;;
32196;SDS011;18697;42.770;23.400;2022-12-15T01:46:11;28.02;;;16.30;;
32196;SDS011;18697;42.770;23.400;2022-12-15T01:53:41;20.10;;;14.18;;
32196;SDS011;18697;42.770;23.400;2022-12-15T01:56:25;26.15;;;15.07;;
32196;SDS011;18697;42.770;23.400;2022-12-15T01:58:52;29.92;;;17.13;;
32196;SDS011;18697;42.770;23.400;2022-12-15T02:01:20;24.52;;;15.55;;
32196;SDS011;18697;42.770;23.400;2022-12-15T02:03:46;25.80;;;15.30;;
32196;SDS011;18697;42.770;23.400;2022-12-15T02:06:12;21.98;;;13.30;;
32196;SDS011;18697;42.770;23.400;2022-12-15T02:08:39;21.90;;;13.68;;
32196;SDS011;18697;42.770;23.400;2022-12-15T02:22:41;25.70;;;15.15;;
32196;SDS011;18697;42.770;23.400;2022-12-15T02:30:51;28.33;;;16.25;;
32196;SDS011;18697;42.770;23.400;2022-12-15T02:33:49;25.17;;;13.88;;
32196;SDS011;18697;42.770;23.400;2022-12-15T02:36:31;31.15;;;17.02;;
32196;SDS011;18697;42.770;23.400;2022-12-15T02:39:01;31.95;;;16.70;;
32196;SDS011;18697;42.770;23.400;2022-12-15T02:43:57;15.38;;;11.25;;
32196;SDS011;18697;42.770;23.400;2022-12-15T02:47:11;15.10;;;11.38;;
32196;SDS011;18697;42.770;23.400;2022-12-15T02:55:00;16.67;;;10.82;;
32196;SDS011;18697;42.770;23.400;2022-12-15T03:00:26;18.90;;;12.82;;
32196;SDS011;18697;42.770;23.400;2022-12-15T03:02:54;12.45;;;8.48;;
32196;SDS011;18697;42.770;23.400;2022-12-15T03:05:21;11.95;;;7.53;;
32196;SDS011;18697;42.770;23.400;2022-12-15T03:07:49;11.25;;;8.65;;
32196;SDS011;18697;42.770;23.400;2022-12-15T03:10:15;12.38;;;8.40;;
32196;SDS011;18697;42.770;23.400;2022-12-15T03:12:41;9.93;;;7.35;;
32196;SDS011;18697;42.770;23.400;2022-12-15T03:15:07;10.70;;;7.10;;
32196;SDS011;18697;42.770;23.400;2022-12-15T03:17:32;9.57;;;6.85;;
32196;SDS011;18697;42.770;23.400;2022-12-15T03:19:58;7.68;;;6.03;;
32196;SDS011;18697;42.770;23.400;2022-12-15T03:22:23;6.15;;;5.53;;
32196;SDS011;18697;42.770;23.400;2022-12-15T03:24:49;6.65;;;5.50;;
32196;SDS011;18697;42.770;23.400;2022-12-15T03:27:14;6.47;;;5.50;;
32196;SDS011;18697;42.770;23.400;2022-12-15T03:29:40;6.05;;;5.00;;
32196;SDS011;18697;42.770;23.400;2022-12-15T03:32:05;7.22;;;5.38;;
32196;SDS011;18697;42.770;23.400;2022-12-15T03:34:31;17.75;;;9.98;;
32196;SDS011;18697;42.770;23.400;2022-12-15T03:36:56;10.55;;;8.20;;
32196;SDS011;18697;42.770;23.400;2022-12-15T03:39:22;7.50;;;6.28;;
32196;SDS011;18697;42.770;23.400;2022-12-15T03:41:47;8.02;;;6.63;;
32196;SDS011;18697;42.770;23.400;2022-12-15T03:44:12;7.28;;;5.72;;
32196;SDS011;18697;42.770;23.400;2022-12-15T03:46:38;8.52;;;6.97;;
32196;SDS011;18697;42.770;23.400;2022-12-15T03:49:03;7.13;;;5.95;;
32196;SDS011;18697;42.770;23.400;2022-12-15T03:51:28;9.68;;;7.28;;
32196;SDS011;18697;42.770;23.400;2022-12-15T03:53:54;9.88;;;7.18;;
32196;SDS011;18697;42.770;23.400;2022-12-15T03:56:19;8.30;;;6.68;;
32196;SDS011;18697;42.770;23.400;2022-12-15T03:58:45;10.85;;;7.93;;
32196;SDS011;18697;42.770;23.400;2022-12-15T04:01:11;9.60;;;7.20;;
32196;SDS011;18697;42.770;23.400;2022-12-15T04:03:49;9.43;;;6.78;;
32196;SDS011;18697;42.770;23.400;2022-12-15T04:06:15;7.55;;;5.90;;
32196;SDS011;18697;42.770;23.400;2022-12-15T04:08:40;7.90;;;5.88;;
32196;SDS011;18697;42.770;23.400;2022-12-15T04:11:06;10.20;;;6.00;;
32196;SDS011;18697;42.770;23.400;2022-12-15T04:13:31;7.03;;;5.60;;
32196;SDS011;18697;42.770;23.400;2022-12-15T04:15:56;7.43;;;5.55;;
32196;SDS011;18697;42.770;23.400;2022-12-15T04:18:25;7.28;;;5.53;;
32196;SDS011;18697;42.770;23.400;2022-12-15T04:20:51;6.90;;;5.45;;
32196;SDS011;18697;42.770;23.400;2022-12-15T04:23:16;6.72;;;5.93;;
32196;SDS011;18697;42.770;23.400;2022-12-15T04:25:41;10.23;;;7.00;;
32196;SDS011;18697;42.770;23.400;2022-12-15T04:28:25;6.43;;;5.45;;
32196;SDS011;18697;42.770;23.400;2022-12-15T04:31:19;5.30;;;4.80;;
32196;SDS011;18697;42.770;23.400;2022-12-15T04:34:09;4.95;;;4.55;;
32196;SDS011;18697;42.770;23.400;2022-12-15T04:36:55;5.22;;;4.30;;
32196;SDS011;18697;42.770;23.400;2022-12-15T04:39:41;5.13;;;4.22;;
32196;SDS011;18697;42.770;23.400;2022-12-15T04:42:28;6.63;;;4.78;;
32196;SDS011;18697;42.770;23.400;2022-12-15T04:45:13;5.05;;;4.65;;
32196;SDS011;18697;42.770;23.400;2022-12-15T04:48:01;6.82;;;4.63;;
32196;SDS011;18697;42.770;23.400;2022-12-15T04:50:46;6.90;;;4.65;;
32196;SDS011;18697;42.770;23.400;2022-12-15T04:53:29;23.55;;;8.85;;
32196;SDS011;18697;42.770;23.400;2022-12-15T04:56:14;12.23;;;6.88;;
32196;SDS011;18697;42.770;23.400;2022-12-15T04:58:59;8.00;;;5.15;;
32196;SDS011;18697;42.770;23.400;2022-12-15T05:01:43;16.33;;;8.88;;
32196;SDS011;18697;42.770;23.400;2022-12-15T05:04:27;15.35;;;10.18;;
32196;SDS011;18697;42.770;23.400;2022-12-15T05:07:11;20.58;;;14.43;;
32196;SDS011;18697;42.770;23.400;2022-12-15T05:09:55;8.52;;;6.63;;
32196;SDS011;18697;42.770;23.400;2022-12-15T05:12:40;5.00;;;4.60;;
32196;SDS011;18697;42.770;23.400;2022-12-15T05:15:23;4.85;;;4.38;;
32196;SDS011;18697;42.770;23.400;2022-12-15T05:18:07;5.15;;;4.70;;
32196;SDS011;18697;42.770;23.400;2022-12-15T05:20:51;46.72;;;40.45;;
32196;SDS011;18697;42.770;23.400;2022-12-15T05:23:35;20.55;;;17.58;;
32196;SDS011;18697;42.770;23.400;2022-12-15T05:26:20;16.80;;;15.07;;
32196;SDS011;18697;42.770;23.400;2022-12-15T05:29:04;12.75;;;11.40;;
32196;SDS011;18697;42.770;23.400;2022-12-15T05:31:47;6.80;;;5.70;;
32196;SDS011;18697;42.770;23.400;2022-12-15T05:34:26;6.97;;;4.82;;
32196;SDS011;18697;42.770;23.400;2022-12-15T05:36:53;11.18;;;7.72;;
32196;SDS011;18697;42.770;23.400;2022-12-15T05:39:20;15.65;;;11.52;;
32196;SDS011;18697;42.770;23.400;2022-12-15T05:41:45;15.80;;;11.63;;
32196;SDS011;18697;42.770;23.400;2022-12-15T05:44:11;8.48;;;6.43;;
32196;SDS011;18697;42.770;23.400;2022-12-15T05:46:37;11.70;;;6.75;;
32196;SDS011;18697;42.770;23.400;2022-12-15T05:49:06;21.27;;;12.50;;
32196;SDS011;18697;42.770;23.400;2022-12-15T05:51:32;12.43;;;8.80;;
32196;SDS011;18697;42.770;23.400;2022-12-15T05:54:01;11.07;;;7.78;;
32196;SDS011;18697;42.770;23.400;2022-12-15T05:56:26;14.00;;;9.43;;
32196;SDS011;18697;42.770;23.400;2022-12-15T05:58:52;11.93;;;8.82;;
32196;SDS011;18697;42.770;23.400;2022-12-15T06:01:18;48.47;;;22.25;;
32196;SDS011;18697;42.770;23.400;2022-12-15T06:03:43;13.40;;;10.15;;
32196;SDS011;18697;42.770;23.400;2022-12-15T06:06:10;12.68;;;9.63;;
32196;SDS011;18697;42.770;23.400;2022-12-15T06:08:37;12.15;;;8.20;;
32196;SDS011;18697;42.770;23.400;2022-12-15T06:11:03;14.07;;;9.02;;
32196;SDS011;18697;42.770;23.400;2022-12-15T06:13:29;68.72;;;32.00;;
32196;SDS011;18697;42.770;23.400;2022-12-15T06:15:59;13.20;;;9.52;;
32196;SDS011;18697;42.770;23.400;2022-12-15T06:18:27;9.23;;;7.45;;
32196;SDS011;18697;42.770;23.400;2022-12-15T06:20:58;9.38;;;6.80;;
32196;SDS011;18697;42.770;23.400;2022-12-15T06:23:29;16.88;;;10.35;;
32196;SDS011;18697;42.770;23.400;2022-12-15T06:25:56;10.63;;;8.02;;
32196;SDS011;18697;42.770;23.400;2022-12-15T06:28:23;19.38;;;11.45;;
32196;SDS011;18697;42.770;23.400;2022-12-15T06:30:52;30.55;;;17.60;;
32196;SDS011;18697;42.770;23.400;2022-12-15T06:33:19;15.48;;;10.50;;
32196;SDS011;18697;42.770;23.400;2022-12-15T06:35:47;17.70;;;12.23;;
32196;SDS011;18697;42.770;23.400;2022-12-15T06:38:13;17.55;;;12.35;;
32196;SDS011;18697;42.770;23.400;2022-12-15T06:40:39;17.25;;;11.63;;
32196;SDS011;18697;42.770;23.400;2022-12-15T06:43:06;19.40;;;12.90;;
32196;SDS011;18697;42.770;23.400;2022-12-15T06:45:32;23.80;;;13.98;;
32196;SDS011;18697;42.770;23.400;2022-12-15T06:47:58;20.25;;;12.73;;
32196;SDS011;18697;42.770;23.400;2022-12-15T06:50:24;19.60;;;12.85;;
32196;SDS011;18697;42.770;23.400;2022-12-15T06:52:49;22.65;;;13.15;;
32196;SDS011;18697;42.770;23.400;2022-12-15T06:55:15;22.48;;;14.90;;
32196;SDS011;18697;42.770;23.400;2022-12-15T06:57:40;23.13;;;13.95;;
32196;SDS011;18697;42.770;23.400;2022-12-15T07:00:06;19.67;;;12.88;;
32196;SDS011;18697;42.770;23.400;2022-12-15T07:02:32;19.25;;;13.00;;
32196;SDS011;18697;42.770;23.400;2022-12-15T07:04:58;20.63;;;12.70;;
32196;SDS011;18697;42.770;23.400;2022-12-15T07:07:24;16.90;;;12.85;;
32196;SDS011;18697;42.770;23.400;2022-12-15T07:09:50;17.58;;;12.63;;
32196;SDS011;18697;42.770;23.400;2022-12-15T07:12:16;21.20;;;13.05;;
32196;SDS011;18697;42.770;23.400;2022-12-15T07:14:42;22.88;;;14.73;;
32196;SDS011;18697;42.770;23.400;2022-12-15T07:17:07;22.92;;;14.75;;
32196;SDS011;18697;42.770;23.400;2022-12-15T07:19:35;22.25;;;13.60;;
32196;SDS011;18697;42.770;23.400;2022-12-15T07:22:00;25.02;;;15.10;;
32196;SDS011;18697;42.770;23.400;2022-12-15T07:24:26;225.23;;;74.95;;
32196;SDS011;18697;42.770;23.400;2022-12-15T07:26:51;194.82;;;89.13;;
32196;SDS011;18697;42.770;23.400;2022-12-15T07:29:16;56.10;;;29.73;;
32196;SDS011;18697;42.770;23.400;2022-12-15T07:31:42;29.73;;;17.55;;
32196;SDS011;18697;42.770;23.400;2022-12-15T07:34:07;23.23;;;14.38;;
32196;SDS011;18697;42.770;23.400;2022-12-15T07:36:33;33.25;;;22.90;;
32196;SDS011;18697;42.770;23.400;2022-12-15T07:38:59;24.98;;;16.10;;
32196;SDS011;18697;42.770;23.400;2022-12-15T07:41:25;38.30;;;25.55;;
32196;SDS011;18697;42.770;23.400;2022-12-15T07:43:51;34.95;;;22.23;;
32196;SDS011;18697;42.770;23.400;2022-12-15T07:46:17;28.92;;;20.27;;
32196;SDS011;18697;42.770;23.400;2022-12-15T07:48:43;29.98;;;20.05;;
32196;SDS011;18697;42.770;23.400;2022-12-15T07:51:09;33.95;;;23.00;;
32196;SDS011;18697;42.770;23.400;2022-12-15T07:53:34;32.92;;;22.35;;
32196;SDS011;18697;42.770;23.400;2022-12-15T07:56:01;28.05;;;17.02;;
32196;SDS011;18697;42.770;23.400;2022-12-15T07:58:28;29.27;;;19.75;;
32196;SDS011;18697;42.770;23.400;2022-12-15T08:00:57;27.20;;;17.38;;
32196;SDS011;18697;42.770;23.400;2022-12-15T08:03:24;27.35;;;17.52;;
32196;SDS011;18697;42.770;23.400;2022-12-15T08:05:49;24.10;;;16.65;;
32196;SDS011;18697;42.770;23.400;2022-12-15T08:08:15;27.52;;;18.08;;
32196;SDS011;18697;42.770;23.400;2022-12-15T08:10:41;31.10;;;21.52;;
32196;SDS011;18697;42.770;23.400;2022-12-15T08:13:06;30.67;;;20.05;;
32196;SDS011;18697;42.770;23.400;2022-12-15T08:15:35;23.55;;;15.27;;
32196;SDS011;18697;42.770;23.400;2022-12-15T08:18:01;27.85;;;17.50;;
32196;SDS011;18697;42.770;23.400;2022-12-15T08:20:28;25.17;;;16.23;;
32196;SDS011;18697;42.770;23.400;2022-12-15T08:22:55;21.60;;;14.98;;
32196;SDS011;18697;42.770;23.400;2022-12-15T08:25:20;22.10;;;14.75;;
32196;SDS011;18697;42.770;23.400;2022-12-15T08:27:48;17.27;;;13.10;;
32196;SDS011;18697;42.770;23.400;2022-12-15T08:30:14;27.88;;;18.33;;
32196;SDS011;18697;42.770;23.400;2022-12-15T08:32:40;20.83;;;13.75;;
32196;SDS011;18697;42.770;23.400;2022-12-15T08:35:05;23.52;;;15.02;;
32196;SDS011;18697;42.770;23.400;2022-12-15T08:37:32;20.77;;;13.43;;
32196;SDS011;18697;42.770;23.400;2022-12-15T08:39:58;23.00;;;14.45;;
32196;SDS011;18697;42.770;23.400;2022-12-15T08:42:24;19.70;;;13.93;;
32196;SDS011;18697;42.770;23.400;2022-12-15T08:44:49;22.00;;;14.55;;
32196;SDS011;18697;42.770;23.400;2022-12-15T08:47:15;21.75;;;14.85;;
32196;SDS011;18697;42.770;23.400;2022-12-15T08:49:40;23.67;;;15.27;;
32196;SDS011;18697;42.770;23.400;2022-12-15T08:52:06;35.40;;;21.42;;
32196;SDS011;18697;42.770;23.400;2022-12-15T08:54:31;31.65;;;18.83;;
32196;SDS011;18697;42.770;23.400;2022-12-15T08:56:56;29.92;;;18.65;;
32196;SDS011;18697;42.770;23.400;2022-12-15T08:59:22;24.50;;;16.27;;
32196;SDS011;18697;42.770;23.400;2022-12-15T09:01:47;21.05;;;15.20;;
32196;SDS011;18697;42.770;23.400;2022-12-15T09:04:13;22.50;;;15.98;;
32196;SDS011;18697;42.770;23.400;2022-12-15T09:06:39;27.75;;;18.40;;
32196;SDS011;18697;42.770;23.400;2022-12-15T09:11:31;23.25;;;14.35;;
32196;SDS011;18697;42.770;23.400;2022-12-15T09:13:57;19.52;;;13.43;;
32196;SDS011;18697;42.770;23.400;2022-12-15T09:16:23;43.13;;;20.77;;
32196;SDS011;18697;42.770;23.400;2022-12-15T09:18:52;40.97;;;19.45;;
32196;SDS011;18697;42.770;23.400;2022-12-15T09:21:20;53.67;;;29.65;;
32196;SDS011;18697;42.770;23.400;2022-12-15T09:23:48;37.58;;;23.70;;
32196;SDS011;18697;42.770;23.400;2022-12-15T09:26:15;23.20;;;15.52;;
32196;SDS011;18697;42.770;23.400;2022-12-15T09:28:42;20.38;;;14.15;;
32196;SDS011;18697;42.770;23.400;2022-12-15T09:33:35;29.60;;;18.48;;
32196;SDS011;18697;42.770;23.400;2022-12-15T09:36:01;17.90;;;12.65;;
32196;SDS011;18697;42.770;23.400;2022-12-15T09:38:28;18.10;;;12.52;;
32196;SDS011;18697;42.770;23.400;2022-12-15T09:43:20;17.73;;;10.65;;
32196;SDS011;18697;42.770;23.400;2022-12-15T09:45:51;14.55;;;10.18;;
32196;SDS011;18697;42.770;23.400;2022-12-15T09:48:25;15.63;;;11.13;;
32196;SDS011;18697;42.770;23.400;2022-12-15T09:50:58;16.73;;;11.25;;
32196;SDS011;18697;42.770;23.400;2022-12-15T09:53:28;15.52;;;11.57;;
32196;SDS011;18697;42.770;23.400;2022-12-15T10:06:52;16.13;;;10.55;;
32196;SDS011;18697;42.770;23.400;2022-12-15T10:11:58;34.38;;;16.92;;
32196;SDS011;18697;42.770;23.400;2022-12-15T10:14:42;14.70;;;10.90;;
32196;SDS011;18697;42.770;23.400;2022-12-15T10:17:19;12.32;;;9.50;;
32196;SDS011;18697;42.770;23.400;2022-12-15T10:19:58;19.73;;;11.73;;
32196;SDS011;18697;42.770;23.400;2022-12-15T10:22:43;21.20;;;12.73;;
32196;SDS011;18697;42.770;23.400;2022-12-15T10:33:16;23.30;;;13.13;;
32196;SDS011;18697;42.770;23.400;2022-12-15T10:35:44;15.27;;;11.23;;
32196;SDS011;18697;42.770;23.400;2022-12-15T10:38:20;16.50;;;10.93;;
32196;SDS011;18697;42.770;23.400;2022-12-15T10:40:55;15.13;;;10.50;;
32196;SDS011;18697;42.770;23.400;2022-12-15T10:43:32;17.35;;;11.23;;
32196;SDS011;18697;42.770;23.400;2022-12-15T10:46:02;11.98;;;8.93;;
32196;SDS011;18697;42.770;23.400;2022-12-15T10:48:36;19.67;;;13.65;;
32196;SDS011;18697;42.770;23.400;2022-12-15T10:56:23;16.88;;;11.43;;
32196;SDS011;18697;42.770;23.400;2022-12-15T10:58:51;15.48;;;11.52;;
32196;SDS011;18697;42.770;23.400;2022-12-15T11:01:28;25.80;;;13.50;;
32196;SDS011;18697;42.770;23.400;2022-12-15T11:03:55;49.00;;;22.23;;
32196;SDS011;18697;42.770;23.400;2022-12-15T11:08:57;14.60;;;10.40;;
32196;SDS011;18697;42.770;23.400;2022-12-15T11:11:35;17.75;;;11.50;;
32196;SDS011;18697;42.770;23.400;2022-12-15T11:14:40;18.25;;;12.80;;
32196;SDS011;18697;42.770;23.400;2022-12-15T11:17:16;38.28;;;27.63;;
32196;SDS011;18697;42.770;23.400;2022-12-15T11:22:23;24.70;;;15.13;;
32196;SDS011;18697;42.770;23.400;2022-12-15T11:25:04;19.33;;;12.23;;
32196;SDS011;18697;42.770;23.400;2022-12-15T11:27:34;16.98;;;11.43;;
32196;SDS011;18697;42.770;23.400;2022-12-15T11:32:40;30.75;;;13.65;;
32196;SDS011;18697;42.770;23.400;2022-12-15T11:35:12;20.33;;;11.23;;
32196;SDS011;18697;42.770;23.400;2022-12-15T11:38:03;21.67;;;11.98;;
32196;SDS011;18697;42.770;23.400;2022-12-15T11:40:41;19.23;;;12.18;;
32196;SDS011;18697;42.770;23.400;2022-12-15T11:48:59;24.40;;;13.00;;
32196;SDS011;18697;42.770;23.400;2022-12-15T11:54:13;19.85;;;10.85;;
32196;SDS011;18697;42.770;23.400;2022-12-15T11:56:51;18.58;;;11.57;;
32196;SDS011;18697;42.770;23.400;2022-12-15T12:11:12;29.30;;;16.33;;
32196;SDS011;18697;42.770;23.400;2022-12-15T12:19:05;40.55;;;19.52;;
32196;SDS011;18697;42.770;23.400;2022-12-15T12:21:39;30.63;;;17.05;;
32196;SDS011;18697;42.770;23.400;2022-12-15T12:29:24;33.85;;;18.10;;
32196;SDS011;18697;42.770;23.400;2022-12-15T12:32:00;27.98;;;16.35;;
32196;SDS011;18697;42.770;23.400;2022-12-15T12:37:34;70.32;;;34.13;;
32196;SDS011;18697;42.770;23.400;2022-12-15T12:40:13;38.38;;;18.52;;
32196;SDS011;18697;42.770;23.400;2022-12-15T12:42:41;33.40;;;16.60;;
32196;SDS011;18697;42.770;23.400;2022-12-15T12:45:15;25.80;;;14.40;;
32196;SDS011;18697;42.770;23.400;2022-12-15T12:47:43;27.25;;;14.50;;
32196;SDS011;18697;42.770;23.400;2022-12-15T12:50:18;26.90;;;15.70;;
32196;SDS011;18697;42.770;23.400;2022-12-15T12:52:47;28.75;;;16.70;;
32196;SDS011;18697;42.770;23.400;2022-12-15T12:55:28;22.58;;;12.68;;
32196;SDS011;18697;42.770;23.400;2022-12-15T13:04:03;25.13;;;13.02;;
32196;SDS011;18697;42.770;23.400;2022-12-15T13:08:59;37.40;;;16.58;;
32196;SDS011;18697;42.770;23.400;2022-12-15T13:14:13;33.65;;;18.45;;
32196;SDS011;18697;42.770;23.400;2022-12-15T13:16:41;25.90;;;12.98;;
32196;SDS011;18697;42.770;23.400;2022-12-15T13:19:09;21.10;;;10.98;;
32196;SDS011;18697;42.770;23.400;2022-12-15T13:26:51;17.08;;;10.07;;
32196;SDS011;18697;42.770;23.400;2022-12-15T13:29:27;15.65;;;10.70;;
32196;SDS011;18697;42.770;23.400;2022-12-15T13:31:52;25.83;;;11.80;;
32196;SDS011;18697;42.770;23.400;2022-12-15T13:34:21;23.77;;;15.48;;
32196;SDS011;18697;42.770;23.400;2022-12-15T13:36:50;11.57;;;8.80;;
32196;SDS011;18697;42.770;23.400;2022-12-15T13:49:48;14.13;;;8.75;;
32196;SDS011;18697;42.770;23.400;2022-12-15T13:54:57;14.05;;;8.55;;
32196;SDS011;18697;42.770;23.400;2022-12-15T13:57:25;10.90;;;7.53;;
32196;SDS011;18697;42.770;23.400;2022-12-15T14:00:00;13.63;;;8.98;;
32196;SDS011;18697;42.770;23.400;2022-12-15T14:05:03;18.83;;;12.38;;
32196;SDS011;18697;42.770;23.400;2022-12-15T14:10:19;90.75;;;36.30;;
32196;SDS011;18697;42.770;23.400;2022-12-15T14:12:48;67.35;;;26.95;;
32196;SDS011;18697;42.770;23.400;2022-12-15T14:15:16;16.15;;;9.65;;
32196;SDS011;18697;42.770;23.400;2022-12-15T14:17:45;12.27;;;7.70;;
32196;SDS011;18697;42.770;23.400;2022-12-15T14:20:21;17.33;;;12.07;;
32196;SDS011;18697;42.770;23.400;2022-12-15T14:22:48;23.95;;;12.20;;
32196;SDS011;18697;42.770;23.400;2022-12-15T14:25:21;18.38;;;10.40;;
32196;SDS011;18697;42.770;23.400;2022-12-15T14:27:49;18.25;;;10.32;;
32196;SDS011;18697;42.770;23.400;2022-12-15T14:38:14;47.53;;;29.83;;
32196;SDS011;18697;42.770;23.400;2022-12-15T14:40:53;94.60;;;51.85;;
32196;SDS011;18697;42.770;23.400;2022-12-15T14:43:25;42.20;;;24.92;;
32196;SDS011;18697;42.770;23.400;2022-12-15T14:45:55;20.63;;;12.93;;
32196;SDS011;18697;42.770;23.400;2022-12-15T14:48:30;18.70;;;10.75;;
32196;SDS011;18697;42.770;23.400;2022-12-15T14:50:59;29.45;;;17.23;;
32196;SDS011;18697;42.770;23.400;2022-12-15T14:53:29;47.15;;;24.92;;
32196;SDS011;18697;42.770;23.400;2022-12-15T14:56:10;21.77;;;13.55;;
32196;SDS011;18697;42.770;23.400;2022-12-15T14:58:55;42.92;;;24.55;;
32196;SDS011;18697;42.770;23.400;2022-12-15T15:01:30;17.75;;;12.55;;
32196;SDS011;18697;42.770;23.400;2022-12-15T15:04:20;27.63;;;16.73;;
32196;SDS011;18697;42.770;23.400;2022-12-15T15:06:51;45.50;;;24.42;;
32196;SDS011;18697;42.770;23.400;2022-12-15T15:11:54;41.15;;;24.30;;
32196;SDS011;18697;42.770;23.400;2022-12-15T15:15:06;31.17;;;18.63;;
32196;SDS011;18697;42.770;23.400;2022-12-15T15:17:20;46.95;;;25.10;;
32196;SDS011;18697;42.770;23.400;2022-12-15T15:20:15;24.40;;;14.10;;
32196;SDS011;18697;42.770;23.400;2022-12-15T15:33:29;202.80;;;72.90;;
32196;SDS011;18697;42.770;23.400;2022-12-15T15:35:55;116.97;;;50.63;;
32196;SDS011;18697;42.770;23.400;2022-12-15T15:38:38;169.63;;;68.95;;
32196;SDS011;18697;42.770;23.400;2022-12-15T15:41:47;198.77;;;80.82;;
32196;SDS011;18697;42.770;23.400;2022-12-15T15:43:56;140.07;;;63.58;;
32196;SDS011;18697;42.770;23.400;2022-12-15T15:46:24;84.78;;;44.58;;
32196;SDS011;18697;42.770;23.400;2022-12-15T15:48:59;47.25;;;28.85;;
32196;SDS011;18697;42.770;23.400;2022-12-15T15:51:29;84.47;;;46.67;;
32196;SDS011;18697;42.770;23.400;2022-12-15T15:54:00;61.15;;;33.08;;
32196;SDS011;18697;42.770;23.400;2022-12-15T15:56:29;58.70;;;34.22;;
32196;SDS011;18697;42.770;23.400;2022-12-15T16:01:21;66.15;;;36.28;;
32196;SDS011;18697;42.770;23.400;2022-12-15T16:03:46;68.63;;;38.08;;
32196;SDS011;18697;42.770;23.400;2022-12-15T16:06:14;99.03;;;49.33;;
32196;SDS011;18697;42.770;23.400;2022-12-15T16:08:42;72.78;;;38.30;;
32196;SDS011;18697;42.770;23.400;2022-12-15T16:11:12;85.40;;;44.33;;
32196;SDS011;18697;42.770;23.400;2022-12-15T16:13:37;306.17;;;125.13;;
32196;SDS011;18697;42.770;23.400;2022-12-15T16:16:03;173.02;;;76.30;;
32196;SDS011;18697;42.770;23.400;2022-12-15T16:18:30;118.95;;;56.97;;
32196;SDS011;18697;42.770;23.400;2022-12-15T16:20:56;81.65;;;43.92;;
32196;SDS011;18697;42.770;23.400;2022-12-15T16:23:22;155.27;;;65.97;;
32196;SDS011;18697;42.770;23.400;2022-12-15T16:25:57;158.27;;;67.75;;
32196;SDS011;18697;42.770;23.400;2022-12-15T16:28:25;180.40;;;75.85;;
32196;SDS011;18697;42.770;23.400;2022-12-15T16:30:54;91.50;;;47.03;;
32196;SDS011;18697;42.770;23.400;2022-12-15T16:33:22;246.25;;;98.68;;
32196;SDS011;18697;42.770;23.400;2022-12-15T16:35:49;178.15;;;78.65;;
32196;SDS011;18697;42.770;23.400;2022-12-15T16:38:22;147.43;;;69.30;;
32196;SDS011;18697;42.770;23.400;2022-12-15T16:40:50;84.55;;;48.17;;
32196;SDS011;18697;42.770;23.400;2022-12-15T16:43:20;86.85;;;46.75;;
32196;SDS011;18697;42.770;23.400;2022-12-15T16:45:47;75.57;;;41.45;;
32196;SDS011;18697;42.770;23.400;2022-12-15T16:48:14;87.75;;;48.10;;
32196;SDS011;18697;42.770;23.400;2022-12-15T16:50:41;88.70;;;48.88;;
32196;SDS011;18697;42.770;23.400;2022-12-15T16:53:19;83.35;;;46.35;;
32196;SDS011;18697;42.770;23.400;2022-12-15T16:58:22;103.55;;;49.30;;
32196;SDS011;18697;42.770;23.400;2022-12-15T17:00:49;87.43;;;47.50;;
32196;SDS011;18697;42.770;23.400;2022-12-15T17:05:43;245.60;;;98.38;;
32196;SDS011;18697;42.770;23.400;2022-12-15T17:08:16;210.30;;;84.75;;
32196;SDS011;18697;42.770;23.400;2022-12-15T17:10:45;184.23;;;78.72;;
32196;SDS011;18697;42.770;23.400;2022-12-15T17:13:19;108.18;;;56.08;;
32196;SDS011;18697;42.770;23.400;2022-12-15T17:15:49;88.10;;;48.95;;
32196;SDS011;18697;42.770;23.400;2022-12-15T17:18:14;71.70;;;41.90;;
32196;SDS011;18697;42.770;23.400;2022-12-15T17:23:07;76.05;;;40.95;;
32196;SDS011;18697;42.770;23.400;2022-12-15T17:25:41;72.47;;;42.40;;
32196;SDS011;18697;42.770;23.400;2022-12-15T17:28:14;76.78;;;43.72;;
32196;SDS011;18697;42.770;23.400;2022-12-15T17:30:42;82.00;;;47.58;;
32196;SDS011;18697;42.770;23.400;2022-12-15T17:33:14;107.18;;;62.50;;